Time;durP1;ratioP1;P1;durP2;ratioP2;P2;SDS_P1;SDS_P2;PMS_P1;PMS_P2;Temp;Humidity;BMP_temperature;BMP_pressure;BME280_temperature;BME280_humidity;BME280_pressure;Samples;Min_cycle;Max_cycle;Signal;HPM_P1;HPM_P2
2023/02/13 00:01:38;;;;;;;31.95;19.17;;;;;;;;;;5097321;28;20130;-70
2023/02/13 00:04:05;;;;;;;36.63;21.73;;;;;;;;;;5098053;28;20055;-70
2023/02/13 00:06:31;;;;;;;32.60;20.65;;;;;;;;;;5086814;28;20123;-70
2023/02/13 00:08:57;;;;;;;31.13;19.75;;;;;;;;;;5098237;28;20039;-70
2023/02/13 00:11:23;;;;;;;28.15;17.85;;;;;;;;;;5091186;28;20051;-70
2023/02/13 00:13:49;;;;;;;32.28;19.88;;;;;;;;;;5074270;28;20150;-70
2023/02/13 00:16:15;;;;;;;34.13;20.23;;;;;;;;;;5070025;28;20513;-70
2023/02/13 00:18:41;;;;;;;30.65;18.75;;;;;;;;;;5091106;28;20571;-70
2023/02/13 00:21:09;;;;;;;31.90;19.35;;;;;;;;;;5094741;28;20088;-70
2023/02/13 00:23:36;;;;;;;28.65;19.58;;;;;;;;;;5077894;28;20039;-70
2023/02/13 00:26:05;;;;;;;31.85;20.52;;;;;;;;;;5096899;28;20079;-70
2023/02/13 00:28:31;;;;;;;33.53;20.70;;;;;;;;;;5095489;28;20055;-70
2023/02/13 00:31:02;;;;;;;31.08;19.65;;;;;;;;;;5074797;28;20090;-70
2023/02/13 00:33:29;;;;;;;29.73;17.80;;;;;;;;;;5076263;28;20118;-70
2023/02/13 00:36:02;;;;;;;28.60;18.40;;;;;;;;;;5077126;28;20063;-70
2023/02/13 00:38:29;;;;;;;26.52;17.90;;;;;;;;;;5095326;28;20043;-70
2023/02/13 00:40:55;;;;;;;27.42;17.67;;;;;;;;;;5097032;28;21783;-70
2023/02/13 00:43:21;;;;;;;32.30;19.27;;;;;;;;;;5081347;28;20040;-70
2023/02/13 00:45:47;;;;;;;28.08;18.33;;;;;;;;;;5100640;28;20047;-70
2023/02/13 00:48:14;;;;;;;31.63;18.85;;;;;;;;;;5095758;28;20187;-70
2023/02/13 00:50:40;;;;;;;34.20;20.45;;;;;;;;;;5098051;28;20096;-70
2023/02/13 00:53:06;;;;;;;30.92;19.60;;;;;;;;;;5079544;28;20509;-70
2023/02/13 00:55:34;;;;;;;29.33;18.58;;;;;;;;;;5079557;28;20054;-70
2023/02/13 00:58:00;;;;;;;30.40;19.20;;;;;;;;;;5081336;28;20047;-70
2023/02/13 01:00:26;;;;;;;29.58;19.63;;;;;;;;;;5074964;28;20141;-70
2023/02/13 01:02:52;;;;;;;30.25;19.00;;;;;;;;;;5093403;28;20097;-70
2023/02/13 01:05:18;;;;;;;31.75;19.73;;;;;;;;;;5094593;28;20093;-70
2023/02/13 01:07:44;;;;;;;30.17;19.85;;;;;;;;;;5095129;28;20050;-70
2023/02/13 01:10:11;;;;;;;34.28;20.95;;;;;;;;;;5097675;28;20056;-70
2023/02/13 01:12:37;;;;;;;30.40;19.40;;;;;;;;;;5097323;28;20510;-70
2023/02/13 01:15:04;;;;;;;32.03;20.88;;;;;;;;;;5075763;28;20463;-70
2023/02/13 01:17:30;;;;;;;29.15;18.20;;;;;;;;;;5094265;28;20038;-70
2023/02/13 01:19:56;;;;;;;29.00;19.48;;;;;;;;;;5079391;28;20047;-70
2023/02/13 01:22:22;;;;;;;29.92;19.23;;;;;;;;;;5098752;28;20039;-70
2023/02/13 01:24:48;;;;;;;32.38;20.17;;;;;;;;;;5096485;28;20388;-70
2023/02/13 01:27:14;;;;;;;32.22;20.08;;;;;;;;;;5081831;28;20052;-70
2023/02/13 01:29:41;;;;;;;29.30;20.23;;;;;;;;;;5076245;28;20094;-70
2023/02/13 01:32:07;;;;;;;32.65;20.83;;;;;;;;;;5099474;28;20479;-70
2023/02/13 01:34:33;;;;;;;33.05;21.45;;;;;;;;;;5097510;28;20054;-70
2023/02/13 01:36:59;;;;;;;34.42;20.42;;;;;;;;;;5096930;28;20040;-70
2023/02/13 01:39:26;;;;;;;32.50;19.67;;;;;;;;;;5082800;28;20134;-69
2023/02/13 01:41:52;;;;;;;29.63;18.92;;;;;;;;;;5095866;28;20055;-70
2023/02/13 01:44:38;;;;;;;31.92;19.45;;;;;;;;;;5077138;28;20130;-70
2023/02/13 01:47:04;;;;;;;34.45;20.02;;;;;;;;;;5099435;28;20064;-70
2023/02/13 01:49:31;;;;;;;32.75;19.95;;;;;;;;;;5064633;28;21346;-70
2023/02/13 01:51:58;;;;;;;30.50;20.50;;;;;;;;;;5075893;28;20518;-70
2023/02/13 01:54:29;;;;;;;33.05;21.20;;;;;;;;;;5098136;28;20083;-70
2023/02/13 01:56:59;;;;;;;36.03;22.60;;;;;;;;;;5096591;28;20142;-70
2023/02/13 01:59:28;;;;;;;34.85;20.50;;;;;;;;;;5095639;28;20607;-70
2023/02/13 02:01:55;;;;;;;35.92;21.10;;;;;;;;;;5095853;28;20040;-70
2023/02/13 02:04:26;;;;;;;35.65;22.48;;;;;;;;;;5099957;28;20042;-70
2023/02/13 02:06:53;;;;;;;32.60;20.50;;;;;;;;;;5094535;28;20482;-70
2023/02/13 02:09:27;;;;;;;33.78;21.27;;;;;;;;;;5100174;28;20046;-70
2023/02/13 02:11:59;;;;;;;32.70;21.55;;;;;;;;;;5097598;28;20109;-70
2023/02/13 02:14:26;;;;;;;36.05;20.95;;;;;;;;;;5085005;28;20039;-70
2023/02/13 02:16:52;;;;;;;34.50;22.05;;;;;;;;;;5096500;28;20082;-69
2023/02/13 02:19:26;;;;;;;32.50;20.20;;;;;;;;;;5091042;28;20047;-69
2023/02/13 02:22:01;;;;;;;29.27;19.83;;;;;;;;;;5077041;28;20036;-69
2023/02/13 02:24:38;;;;;;;34.42;22.40;;;;;;;;;;5091659;28;20039;-69
2023/02/13 02:27:13;;;;;;;32.72;20.15;;;;;;;;;;5096582;28;20036;-69
2023/02/13 02:29:46;;;;;;;30.08;20.20;;;;;;;;;;5078602;28;20098;-69
2023/02/13 02:32:31;;;;;;;30.92;19.95;;;;;;;;;;5099120;28;20094;-69
2023/02/13 02:35:22;;;;;;;30.42;18.52;;;;;;;;;;5079277;28;20483;-69
2023/02/13 02:38:01;;;;;;;32.67;20.23;;;;;;;;;;5084243;28;20044;-69
2023/02/13 02:40:41;;;;;;;33.58;21.55;;;;;;;;;;5074179;28;20338;-69
2023/02/13 02:43:13;;;;;;;30.98;20.10;;;;;;;;;;5078554;28;20048;-69
2023/02/13 02:45:56;;;;;;;30.23;18.98;;;;;;;;;;5092444;28;20119;-70
2023/02/13 02:51:19;;;;;;;32.65;19.63;;;;;;;;;;5096721;28;20047;-70
2023/02/13 02:53:51;;;;;;;31.98;19.40;;;;;;;;;;5078807;28;20092;-70
2023/02/13 02:56:22;;;;;;;31.55;18.65;;;;;;;;;;5077750;28;20079;-69
2023/02/13 03:07:18;;;;;;;33.42;21.60;;;;;;;;;;5077289;28;20051;-70
2023/02/13 03:15:25;;;;;;;36.75;22.45;;;;;;;;;;5093604;28;20040;-70
2023/02/13 03:23:36;;;;;;;40.15;23.33;;;;;;;;;;5074346;28;20122;-70
2023/02/13 03:26:06;;;;;;;38.03;24.00;;;;;;;;;;5098317;28;20036;-70
2023/02/13 03:31:38;;;;;;;38.92;25.25;;;;;;;;;;5095164;28;20090;-70
2023/02/13 03:34:06;;;;;;;40.55;24.88;;;;;;;;;;5096388;28;20046;-70
2023/02/13 03:39:39;;;;;;;38.55;24.80;;;;;;;;;;5079326;28;20614;-70
2023/02/13 03:42:09;;;;;;;39.88;23.73;;;;;;;;;;5075729;28;20059;-70
2023/02/13 03:44:40;;;;;;;35.15;21.88;;;;;;;;;;5092391;28;20123;-70
2023/02/13 03:47:08;;;;;;;35.17;22.17;;;;;;;;;;5076919;28;20116;-70
2023/02/13 03:52:38;;;;;;;37.03;22.25;;;;;;;;;;5094455;28;22295;-70
2023/02/13 04:00:41;;;;;;;35.47;21.48;;;;;;;;;;5080047;28;20170;-70
2023/02/13 04:03:15;;;;;;;33.90;21.23;;;;;;;;;;5092437;28;20100;-70
2023/02/13 04:05:43;;;;;;;34.22;21.92;;;;;;;;;;5093307;28;20039;-70
2023/02/13 04:08:10;;;;;;;39.47;23.95;;;;;;;;;;5095135;28;20395;-70
2023/02/13 04:10:40;;;;;;;38.67;23.58;;;;;;;;;;5097323;28;20074;-70
2023/02/13 04:13:14;;;;;;;39.85;23.40;;;;;;;;;;5093653;28;20036;-70
2023/02/13 04:15:44;;;;;;;37.75;23.25;;;;;;;;;;5076832;28;20050;-70
2023/02/13 04:18:11;;;;;;;36.83;22.98;;;;;;;;;;5093792;28;20411;-70
2023/02/13 04:20:38;;;;;;;33.80;21.50;;;;;;;;;;5090114;28;20168;-70
2023/02/13 04:23:05;;;;;;;38.33;23.42;;;;;;;;;;5075794;28;20051;-70
2023/02/13 04:25:32;;;;;;;40.22;24.65;;;;;;;;;;5097851;28;20116;-70
2023/02/13 04:27:58;;;;;;;38.38;23.88;;;;;;;;;;5095663;28;20139;-70
2023/02/13 04:30:24;;;;;;;39.20;23.50;;;;;;;;;;5093554;28;20044;-70
2023/02/13 04:32:51;;;;;;;40.13;23.98;;;;;;;;;;5072210;28;20122;-70
2023/02/13 04:35:18;;;;;;;38.30;22.90;;;;;;;;;;5087671;28;20412;-70
2023/02/13 04:37:44;;;;;;;37.88;21.95;;;;;;;;;;5076379;28;20043;-70
2023/02/13 04:40:10;;;;;;;36.13;22.33;;;;;;;;;;5089867;28;20100;-70
2023/02/13 04:42:36;;;;;;;33.35;20.92;;;;;;;;;;5094396;28;20040;-70
2023/02/13 04:45:03;;;;;;;35.80;22.63;;;;;;;;;;5095327;28;20044;-70
2023/02/13 04:47:29;;;;;;;35.20;22.50;;;;;;;;;;5095449;28;20424;-70
2023/02/13 04:49:55;;;;;;;36.25;22.40;;;;;;;;;;5078375;28;20406;-70
2023/02/13 04:52:21;;;;;;;37.95;23.30;;;;;;;;;;5096208;28;20386;-70
2023/02/13 04:54:47;;;;;;;39.85;23.83;;;;;;;;;;5097429;28;20463;-70
2023/02/13 04:57:14;;;;;;;36.10;22.25;;;;;;;;;;5093270;28;20506;-70
2023/02/13 04:59:40;;;;;;;38.25;22.48;;;;;;;;;;5077202;28;20058;-70
2023/02/13 05:02:06;;;;;;;37.03;22.60;;;;;;;;;;5094645;28;20085;-70
2023/02/13 05:04:33;;;;;;;34.40;22.10;;;;;;;;;;5098604;28;20047;-70
2023/02/13 05:06:59;;;;;;;32.70;20.95;;;;;;;;;;5097277;28;20056;-70
2023/02/13 05:09:25;;;;;;;34.85;21.30;;;;;;;;;;5090091;28;20123;-70
2023/02/13 05:11:52;;;;;;;35.97;23.00;;;;;;;;;;5095155;28;20047;-70
2023/02/13 05:14:18;;;;;;;38.95;24.58;;;;;;;;;;5095814;28;20085;-70
2023/02/13 05:16:45;;;;;;;36.33;22.63;;;;;;;;;;5092048;28;20052;-70
2023/02/13 05:19:11;;;;;;;37.40;22.85;;;;;;;;;;5092666;28;20134;-70
2023/02/13 05:24:22;;;;;;;41.22;23.70;;;;;;;;;;5096566;28;20051;-70
2023/02/13 05:26:48;;;;;;;40.08;22.58;;;;;;;;;;5100783;28;20511;-70
2023/02/13 05:29:17;;;;;;;37.55;22.58;;;;;;;;;;5098385;28;20050;-70
2023/02/13 05:31:43;;;;;;;36.75;21.33;;;;;;;;;;5099730;28;20064;-70
2023/02/13 05:34:10;;;;;;;36.63;22.48;;;;;;;;;;5100576;28;20108;-70
2023/02/13 05:36:36;;;;;;;36.60;23.30;;;;;;;;;;5078984;28;20043;-69
2023/02/13 05:39:02;;;;;;;37.20;23.25;;;;;;;;;;5075082;28;20523;-70
2023/02/13 05:41:28;;;;;;;41.33;23.95;;;;;;;;;;5099120;28;20482;-70
2023/02/13 05:43:54;;;;;;;40.50;23.92;;;;;;;;;;5079319;28;20148;-70
2023/02/13 05:46:20;;;;;;;40.95;24.83;;;;;;;;;;5078286;28;20084;-70
2023/02/13 05:48:46;;;;;;;41.60;24.30;;;;;;;;;;5098686;28;20114;-70
2023/02/13 05:51:13;;;;;;;39.85;23.13;;;;;;;;;;5100695;28;20044;-70
2023/02/13 05:53:39;;;;;;;38.40;23.42;;;;;;;;;;5099771;28;20086;-70
2023/02/13 05:56:06;;;;;;;37.92;22.00;;;;;;;;;;5095551;28;20032;-70
2023/02/13 05:58:32;;;;;;;39.50;23.50;;;;;;;;;;5074124;28;20089;-70
2023/02/13 06:00:59;;;;;;;36.17;22.35;;;;;;;;;;5094353;28;20047;-72
2023/02/13 06:03:26;;;;;;;38.22;23.80;;;;;;;;;;5076786;28;20096;-70
2023/02/13 06:05:53;;;;;;;39.17;23.45;;;;;;;;;;5082798;28;20409;-70
2023/02/13 06:08:19;;;;;;;42.63;23.10;;;;;;;;;;5077853;28;20430;-70
2023/02/13 06:10:46;;;;;;;41.58;24.50;;;;;;;;;;5098669;28;20483;-70
2023/02/13 06:13:12;;;;;;;36.88;23.88;;;;;;;;;;5074248;28;20130;-70
2023/02/13 06:15:39;;;;;;;36.70;23.30;;;;;;;;;;5072741;28;20052;-69
2023/02/13 06:18:05;;;;;;;40.33;23.90;;;;;;;;;;5097403;28;20040;-69
2023/02/13 06:20:31;;;;;;;38.33;23.55;;;;;;;;;;5091215;28;20028;-70
2023/02/13 06:22:58;;;;;;;40.20;23.80;;;;;;;;;;5064756;28;20101;-70
2023/02/13 06:25:24;;;;;;;40.13;24.80;;;;;;;;;;5089313;28;20487;-70
2023/02/13 06:27:50;;;;;;;40.28;25.35;;;;;;;;;;5087442;28;20073;-70
2023/02/13 06:30:17;;;;;;;39.30;24.05;;;;;;;;;;5094586;28;20042;-70
2023/02/13 06:32:45;;;;;;;43.00;25.40;;;;;;;;;;5078675;28;20039;-70
2023/02/13 06:35:11;;;;;;;41.35;24.65;;;;;;;;;;5097843;28;20035;-70
2023/02/13 06:37:38;;;;;;;40.78;23.40;;;;;;;;;;5096268;28;20063;-70
2023/02/13 06:40:05;;;;;;;42.33;24.85;;;;;;;;;;5095678;28;20052;-71
2023/02/13 06:42:31;;;;;;;38.22;24.52;;;;;;;;;;5100944;28;20553;-70
2023/02/13 06:44:57;;;;;;;43.40;25.75;;;;;;;;;;5078609;28;20313;-70
2023/02/13 06:47:23;;;;;;;41.97;23.17;;;;;;;;;;5097753;28;20044;-70
2023/02/13 06:49:49;;;;;;;35.55;23.35;;;;;;;;;;5077605;28;20299;-69
2023/02/13 06:52:16;;;;;;;42.75;24.83;;;;;;;;;;5057322;28;20468;-70
2023/02/13 06:54:42;;;;;;;39.70;24.55;;;;;;;;;;5072840;28;20500;-70
2023/02/13 06:57:08;;;;;;;39.80;24.20;;;;;;;;;;5068240;28;20933;-70
2023/02/13 06:59:34;;;;;;;44.63;24.60;;;;;;;;;;5091782;28;20039;-70
2023/02/13 07:02:00;;;;;;;40.42;24.50;;;;;;;;;;5088192;28;20044;-70
2023/02/13 07:04:27;;;;;;;44.08;25.30;;;;;;;;;;5071351;28;20043;-71
2023/02/13 07:06:55;;;;;;;36.78;23.67;;;;;;;;;;5090790;28;20368;-70
2023/02/13 07:09:22;;;;;;;39.47;23.35;;;;;;;;;;5076047;28;20051;-70
2023/02/13 07:11:48;;;;;;;35.55;22.65;;;;;;;;;;5095249;28;20528;-70
2023/02/13 07:14:14;;;;;;;37.95;24.17;;;;;;;;;;5095238;28;20499;-70
2023/02/13 07:16:40;;;;;;;40.00;24.77;;;;;;;;;;5096875;28;20089;-70
2023/02/13 07:19:07;;;;;;;40.45;24.20;;;;;;;;;;5095255;28;20090;-70
2023/02/13 07:21:33;;;;;;;41.67;24.83;;;;;;;;;;5090095;28;20180;-70
2023/02/13 07:23:59;;;;;;;40.90;25.13;;;;;;;;;;5094466;28;20498;-70
2023/02/13 07:26:26;;;;;;;43.20;26.23;;;;;;;;;;5094909;28;20499;-71
2023/02/13 07:28:53;;;;;;;41.17;24.42;;;;;;;;;;5076503;28;20055;-70
2023/02/13 07:31:19;;;;;;;41.00;24.80;;;;;;;;;;5096019;28;20046;-70
2023/02/13 07:33:47;;;;;;;41.67;23.92;;;;;;;;;;5095044;28;20519;-71
2023/02/13 07:36:14;;;;;;;43.50;24.63;;;;;;;;;;5093169;28;20051;-71
2023/02/13 07:38:40;;;;;;;38.67;23.38;;;;;;;;;;5097684;28;20044;-71
2023/02/13 07:41:06;;;;;;;39.65;23.45;;;;;;;;;;5093303;28;20052;-71
2023/02/13 07:43:32;;;;;;;39.55;24.65;;;;;;;;;;5093999;28;20119;-72
2023/02/13 07:46:02;;;;;;;37.95;23.52;;;;;;;;;;5092229;28;20058;-71
2023/02/13 07:48:28;;;;;;;39.50;23.23;;;;;;;;;;5077170;28;20092;-71
2023/02/13 07:50:59;;;;;;;40.03;23.27;;;;;;;;;;5089597;28;20032;-71
2023/02/13 07:53:25;;;;;;;36.97;21.85;;;;;;;;;;5090223;28;20044;-71
2023/02/13 07:55:51;;;;;;;39.28;23.50;;;;;;;;;;5093963;28;20133;-72
2023/02/13 07:58:17;;;;;;;35.97;22.08;;;;;;;;;;5076215;28;20138;-71
2023/02/13 08:00:43;;;;;;;42.58;23.70;;;;;;;;;;5093274;28;20062;-71
2023/02/13 08:03:09;;;;;;;43.90;22.95;;;;;;;;;;5076617;28;20047;-71
2023/02/13 08:05:36;;;;;;;38.10;23.00;;;;;;;;;;5090812;28;20075;-71
2023/02/13 08:08:02;;;;;;;37.17;22.55;;;;;;;;;;5092882;28;20065;-71
2023/02/13 08:13:14;;;;;;;39.05;22.40;;;;;;;;;;5072216;28;20051;-71
2023/02/13 08:15:40;;;;;;;38.78;23.42;;;;;;;;;;5093358;28;20031;-72
2023/02/13 08:18:06;;;;;;;40.47;23.63;;;;;;;;;;5095157;28;20043;-70
2023/02/13 08:20:33;;;;;;;37.40;23.05;;;;;;;;;;5096371;28;20036;-71
2023/02/13 08:23:03;;;;;;;36.50;22.48;;;;;;;;;;5093240;28;20111;-68
2023/02/13 08:25:29;;;;;;;38.85;23.48;;;;;;;;;;5096444;28;20040;-69
2023/02/13 08:27:56;;;;;;;38.50;23.27;;;;;;;;;;5093302;28;20039;-69
2023/02/13 08:30:22;;;;;;;42.92;24.00;;;;;;;;;;5098790;28;20111;-69
2023/02/13 08:32:48;;;;;;;36.75;22.52;;;;;;;;;;5092290;28;20047;-69
2023/02/13 08:35:14;;;;;;;39.03;23.85;;;;;;;;;;5097639;28;20126;-69
2023/02/13 08:37:40;;;;;;;42.42;23.98;;;;;;;;;;5095863;28;20038;-69
2023/02/13 08:40:13;;;;;;;41.10;23.25;;;;;;;;;;5096708;28;20051;-70
2023/02/13 08:42:39;;;;;;;40.55;23.25;;;;;;;;;;5090529;28;20074;-69
2023/02/13 08:45:05;;;;;;;38.67;21.50;;;;;;;;;;5077441;28;21333;-68
2023/02/13 08:47:32;;;;;;;37.67;22.52;;;;;;;;;;5076472;28;20139;-68
2023/02/13 08:49:58;;;;;;;41.55;23.67;;;;;;;;;;5072345;28;20083;-68
2023/02/13 08:52:24;;;;;;;36.05;22.13;;;;;;;;;;5094123;28;20040;-68
2023/02/13 08:54:50;;;;;;;37.95;21.80;;;;;;;;;;5093563;28;20047;-68
2023/02/13 08:57:16;;;;;;;33.90;21.83;;;;;;;;;;5095813;28;21275;-72
2023/02/13 08:59:42;;;;;;;38.85;22.38;;;;;;;;;;5095329;28;20117;-68
2023/02/13 09:02:10;;;;;;;43.63;24.48;;;;;;;;;;5095863;28;20067;-68
2023/02/13 09:04:36;;;;;;;42.28;24.02;;;;;;;;;;5104010;28;20100;-68
2023/02/13 09:07:03;;;;;;;41.25;23.63;;;;;;;;;;5101421;28;20402;-68
2023/02/13 09:09:29;;;;;;;39.53;23.67;;;;;;;;;;5096609;28;20036;-67
2023/02/13 09:11:56;;;;;;;39.47;23.83;;;;;;;;;;5108834;28;20075;-68
2023/02/13 09:14:23;;;;;;;39.28;23.05;;;;;;;;;;5105542;28;20048;-68
2023/02/13 09:16:49;;;;;;;34.17;20.50;;;;;;;;;;5104809;28;20039;-68
2023/02/13 09:19:15;;;;;;;39.10;22.10;;;;;;;;;;5100368;28;20047;-68
2023/02/13 09:21:41;;;;;;;37.35;22.38;;;;;;;;;;5100136;28;20383;-67
2023/02/13 09:24:08;;;;;;;34.75;21.63;;;;;;;;;;5096331;28;20047;-67
2023/02/13 09:26:35;;;;;;;39.03;22.67;;;;;;;;;;5094445;28;20048;-68
2023/02/13 09:29:01;;;;;;;35.20;21.65;;;;;;;;;;5076836;28;20043;-68
2023/02/13 09:31:27;;;;;;;41.08;23.38;;;;;;;;;;5096187;28;20372;-68
2023/02/13 09:33:53;;;;;;;34.70;20.38;;;;;;;;;;5081440;28;20414;-68
2023/02/13 09:36:21;;;;;;;33.33;19.63;;;;;;;;;;5079937;28;20039;-68
2023/02/13 09:38:48;;;;;;;35.50;21.38;;;;;;;;;;5098780;28;20467;-68
2023/02/13 09:41:16;;;;;;;45.08;22.38;;;;;;;;;;5092265;28;20067;-67
2023/02/13 09:43:50;;;;;;;37.80;21.70;;;;;;;;;;5092713;28;20200;-68
2023/02/13 09:46:25;;;;;;;47.42;19.95;;;;;;;;;;5092966;28;20059;-68
2023/02/13 09:48:53;;;;;;;49.78;23.60;;;;;;;;;;5097949;28;20054;-68
2023/02/13 09:51:22;;;;;;;37.50;22.48;;;;;;;;;;5094663;28;20046;-68
2023/02/13 09:53:51;;;;;;;35.00;20.73;;;;;;;;;;5099668;28;20078;-68
2023/02/13 09:56:21;;;;;;;38.78;22.20;;;;;;;;;;5096487;28;20180;-68
2023/02/13 09:58:49;;;;;;;33.67;21.42;;;;;;;;;;5094542;28;20093;-68
2023/02/13 10:01:15;;;;;;;34.42;19.52;;;;;;;;;;5076359;28;20060;-67
2023/02/13 10:03:42;;;;;;;36.40;22.17;;;;;;;;;;5092315;28;20043;-68
2023/02/13 10:06:21;;;;;;;36.92;21.55;;;;;;;;;;5094943;28;20032;-68
2023/02/13 10:08:54;;;;;;;38.15;22.52;;;;;;;;;;5096103;28;20052;-68
2023/02/13 10:11:40;;;;;;;38.07;21.30;;;;;;;;;;5078432;28;20043;-67
2023/02/13 10:14:11;;;;;;;35.67;21.33;;;;;;;;;;5091668;28;20370;-68
2023/02/13 10:16:40;;;;;;;43.45;20.80;;;;;;;;;;5073563;28;20100;-68
2023/02/13 10:19:14;;;;;;;33.42;20.83;;;;;;;;;;5071734;28;20044;-68
2023/02/13 10:21:47;;;;;;;31.83;19.70;;;;;;;;;;5097927;28;20467;-67
2023/02/13 10:24:23;;;;;;;35.08;21.45;;;;;;;;;;5091046;28;20115;-67
2023/02/13 10:26:49;;;;;;;36.28;22.23;;;;;;;;;;5075884;28;20051;-68
2023/02/13 10:32:06;;;;;;;38.60;22.17;;;;;;;;;;5093998;28;20407;-67
2023/02/13 10:34:36;;;;;;;37.38;21.25;;;;;;;;;;5093819;28;20173;-68
2023/02/13 10:37:02;;;;;;;36.00;22.10;;;;;;;;;;5076129;28;20043;-68
2023/02/13 10:39:30;;;;;;;42.45;22.88;;;;;;;;;;5081680;28;20185;-67
2023/02/13 10:42:05;;;;;;;38.65;23.02;;;;;;;;;;5093637;28;20063;-68
2023/02/13 10:44:38;;;;;;;41.33;21.90;;;;;;;;;;5098545;28;20165;-67
2023/02/13 10:47:07;;;;;;;40.17;22.58;;;;;;;;;;5093902;28;20717;-67
2023/02/13 10:49:46;;;;;;;37.08;21.58;;;;;;;;;;5093952;28;20054;-67
2023/02/13 10:52:19;;;;;;;35.70;22.50;;;;;;;;;;5080504;28;20036;-67
2023/02/13 10:54:54;;;;;;;42.28;23.42;;;;;;;;;;5093244;28;20059;-67
2023/02/13 10:57:25;;;;;;;36.10;21.23;;;;;;;;;;5092255;28;20127;-68
2023/02/13 10:59:58;;;;;;;38.67;22.08;;;;;;;;;;5090616;28;20044;-68
2023/02/13 11:02:27;;;;;;;41.75;23.95;;;;;;;;;;5092821;28;20184;-67
2023/02/13 11:05:00;;;;;;;36.17;23.55;;;;;;;;;;5093710;28;20093;-67
2023/02/13 11:07:27;;;;;;;34.63;21.75;;;;;;;;;;5095999;28;20098;-68
2023/02/13 11:09:58;;;;;;;37.13;22.63;;;;;;;;;;5095313;28;20087;-67
2023/02/13 11:12:26;;;;;;;38.00;22.73;;;;;;;;;;5081112;28;20047;-68
2023/02/13 11:14:54;;;;;;;36.63;21.42;;;;;;;;;;5089168;28;20048;-68
2023/02/13 11:17:22;;;;;;;37.35;21.48;;;;;;;;;;5091709;28;20035;-68
2023/02/13 11:19:52;;;;;;;37.08;22.20;;;;;;;;;;5094497;28;20052;-68
2023/02/13 11:22:32;;;;;;;39.63;22.38;;;;;;;;;;5098773;28;20449;-68
2023/02/13 11:25:01;;;;;;;37.50;23.10;;;;;;;;;;5095894;28;20111;-68
2023/02/13 11:27:31;;;;;;;37.05;21.20;;;;;;;;;;5094591;28;20067;-68
2023/02/13 11:30:00;;;;;;;34.25;21.08;;;;;;;;;;5095895;28;20050;-68
2023/02/13 11:32:28;;;;;;;38.70;22.67;;;;;;;;;;5074437;28;20136;-69
2023/02/13 11:34:55;;;;;;;40.00;22.63;;;;;;;;;;5070968;28;20055;-68
2023/02/13 11:37:22;;;;;;;40.33;23.02;;;;;;;;;;5090638;28;20040;-68
2023/02/13 11:39:50;;;;;;;38.67;21.98;;;;;;;;;;5094638;28;20093;-67
2023/02/13 11:42:21;;;;;;;41.92;23.00;;;;;;;;;;5089169;28;20092;-68
2023/02/13 11:44:51;;;;;;;36.45;21.02;;;;;;;;;;5070502;28;20047;-69
2023/02/13 11:47:29;;;;;;;37.85;22.15;;;;;;;;;;5087682;28;20134;-69
2023/02/13 11:49:55;;;;;;;37.63;22.77;;;;;;;;;;5072951;28;20186;-74
2023/02/13 11:52:24;;;;;;;40.40;21.75;;;;;;;;;;5077583;28;20117;-69
2023/02/13 11:54:59;;;;;;;39.90;24.52;;;;;;;;;;5076162;28;20051;-69
2023/02/13 11:57:28;;;;;;;37.85;22.83;;;;;;;;;;5072065;28;20837;-69
2023/02/13 11:59:55;;;;;;;38.42;23.27;;;;;;;;;;5092553;28;20608;-69
2023/02/13 12:02:22;;;;;;;37.90;23.63;;;;;;;;;;5096156;28;20443;-69
2023/02/13 12:04:50;;;;;;;37.78;21.42;;;;;;;;;;5092764;28;20036;-69
2023/02/13 12:07:20;;;;;;;41.83;22.90;;;;;;;;;;5075000;28;20059;-69
2023/02/13 12:09:48;;;;;;;34.05;21.60;;;;;;;;;;5089253;28;20040;-69
2023/02/13 12:12:17;;;;;;;40.65;21.67;;;;;;;;;;5090920;28;20039;-69
2023/02/13 12:14:45;;;;;;;41.65;22.75;;;;;;;;;;5070891;28;20043;-69
2023/02/13 12:17:14;;;;;;;39.47;22.60;;;;;;;;;;5070935;28;20127;-69
2023/02/13 12:19:40;;;;;;;37.85;20.45;;;;;;;;;;5089452;28;20138;-69
2023/02/13 12:22:16;;;;;;;35.08;21.63;;;;;;;;;;5095769;28;20032;-69
2023/02/13 12:24:50;;;;;;;36.60;22.17;;;;;;;;;;5091179;28;20122;-69
2023/02/13 12:27:18;;;;;;;34.47;20.52;;;;;;;;;;5070960;28;20044;-69
2023/02/13 12:29:57;;;;;;;40.67;22.48;;;;;;;;;;5094062;28;20047;-69
2023/02/13 12:32:34;;;;;;;34.63;21.38;;;;;;;;;;5096881;28;20572;-69
2023/02/13 12:35:19;;;;;;;36.10;21.38;;;;;;;;;;5077579;28;20052;-69
2023/02/13 12:37:57;;;;;;;34.22;21.83;;;;;;;;;;5082419;28;20082;-69
2023/02/13 12:40:33;;;;;;;34.30;21.17;;;;;;;;;;5075963;28;20059;-69
2023/02/13 12:43:18;;;;;;;37.45;22.15;;;;;;;;;;5094265;28;20055;-69
2023/02/13 12:45:49;;;;;;;42.13;22.65;;;;;;;;;;5076433;28;20040;-69
2023/02/13 12:48:21;;;;;;;32.72;20.15;;;;;;;;;;5076089;28;20116;-69
2023/02/13 12:51:06;;;;;;;33.03;20.08;;;;;;;;;;5079877;28;20050;-69
2023/02/13 12:53:38;;;;;;;38.17;22.90;;;;;;;;;;5079304;28;20043;-69
2023/02/13 12:56:07;;;;;;;38.85;21.80;;;;;;;;;;5078930;28;20055;-69
2023/02/13 12:58:41;;;;;;;37.78;22.42;;;;;;;;;;5072231;28;20146;-69
2023/02/13 13:01:17;;;;;;;38.72;21.83;;;;;;;;;;5074252;28;20040;-69
2023/02/13 13:03:54;;;;;;;37.05;22.63;;;;;;;;;;5078305;28;20490;-69
2023/02/13 13:06:28;;;;;;;35.42;20.45;;;;;;;;;;5079064;28;20633;-69
2023/02/13 13:09:10;;;;;;;40.65;23.42;;;;;;;;;;5079759;28;20863;-69
2023/02/13 13:11:45;;;;;;;42.13;22.75;;;;;;;;;;5077016;28;20047;-70
2023/02/13 13:14:11;;;;;;;38.75;22.23;;;;;;;;;;5076192;28;20075;-70
2023/02/13 13:16:47;;;;;;;39.58;21.83;;;;;;;;;;5075544;28;20490;-70
2023/02/13 13:19:30;;;;;;;37.28;22.75;;;;;;;;;;5078167;28;20806;-70
2023/02/13 13:22:00;;;;;;;37.10;22.63;;;;;;;;;;5077598;28;20044;-71
2023/02/13 13:24:33;;;;;;;35.30;21.50;;;;;;;;;;5079045;28;20633;-71
2023/02/13 13:27:00;;;;;;;39.77;24.47;;;;;;;;;;5075022;28;20867;-70
2023/02/13 13:29:29;;;;;;;38.53;21.83;;;;;;;;;;5076025;28;20457;-70
2023/02/13 13:31:59;;;;;;;41.50;23.48;;;;;;;;;;5074472;28;20116;-70
2023/02/13 13:34:26;;;;;;;42.30;22.60;;;;;;;;;;5076422;28;20044;-71
2023/02/13 13:36:56;;;;;;;40.35;23.75;;;;;;;;;;5072683;28;20032;-70
2023/02/13 13:39:25;;;;;;;35.72;21.85;;;;;;;;;;5075727;28;20055;-71
2023/02/13 13:41:59;;;;;;;37.95;23.10;;;;;;;;;;5093406;28;20243;-71
2023/02/13 13:44:37;;;;;;;37.75;22.42;;;;;;;;;;5080016;28;20138;-71
2023/02/13 13:47:14;;;;;;;34.33;22.55;;;;;;;;;;5097287;28;20185;-71
2023/02/13 13:49:48;;;;;;;39.60;22.98;;;;;;;;;;5098306;28;20035;-71
2023/02/13 13:52:14;;;;;;;;;;;;;;;;;;5082621;28;20051;-70
2023/02/13 13:54:41;;;;;;;35.25;21.52;;;;;;;;;;5097581;28;19919;-69
2023/02/13 13:57:07;;;;;;;37.17;21.02;;;;;;;;;;5078179;28;20508;-69
2023/02/13 13:59:33;;;;;;;40.20;23.13;;;;;;;;;;5076587;28;20410;-71
2023/02/13 14:02:32;;;;;;;37.35;21.40;;;;;;;;;;5099996;28;20503;-71
2023/02/13 14:05:09;;;;;;;37.70;22.77;;;;;;;;;;5082630;28;20040;-71
2023/02/13 14:07:36;;;;;;;39.40;22.63;;;;;;;;;;5074989;28;20802;-71
2023/02/13 14:10:03;;;;;;;35.17;22.15;;;;;;;;;;5096386;28;20396;-71
2023/02/13 14:12:29;;;;;;;38.88;22.13;;;;;;;;;;5077409;28;20044;-71
2023/02/13 14:14:56;;;;;;;39.83;22.02;;;;;;;;;;5098071;28;20043;-71
2023/02/13 14:17:41;;;;;;;39.72;22.58;;;;;;;;;;5097263;28;20112;-70
2023/02/13 14:20:20;;;;;;;36.40;22.35;;;;;;;;;;5101178;28;20051;-71
2023/02/13 14:22:47;;;;;;;37.53;23.35;;;;;;;;;;5080804;28;20592;-71
2023/02/13 14:25:23;;;;;;;37.03;22.15;;;;;;;;;;5099943;28;20044;-71
2023/02/13 14:27:59;;;;;;;41.70;24.15;;;;;;;;;;5097551;28;20070;-70
2023/02/13 14:30:27;;;;;;;33.97;22.35;;;;;;;;;;5097564;28;20050;-69
2023/02/13 14:32:53;;;;;;;40.25;23.02;;;;;;;;;;5077605;28;20047;-70
2023/02/13 14:35:25;;;;;;;36.00;22.15;;;;;;;;;;5078645;28;20125;-71
2023/02/13 14:37:53;;;;;;;35.83;23.40;;;;;;;;;;5096684;28;20126;-71
2023/02/13 14:40:20;;;;;;;36.35;22.38;;;;;;;;;;5080381;28;20078;-71
2023/02/13 14:42:51;;;;;;;40.65;23.85;;;;;;;;;;5083766;28;21439;-71
2023/02/13 14:45:21;;;;;;;37.67;24.52;;;;;;;;;;5094220;28;20133;-70
2023/02/13 14:47:52;;;;;;;37.80;24.02;;;;;;;;;;5095446;28;20142;-71
2023/02/13 14:50:27;;;;;;;39.95;24.92;;;;;;;;;;5098658;28;20044;-71
2023/02/13 14:52:53;;;;;;;39.83;23.38;;;;;;;;;;5096409;28;20082;-71
2023/02/13 14:55:27;;;;;;;37.72;23.15;;;;;;;;;;5099298;28;20051;-71
2023/02/13 14:57:56;;;;;;;39.65;22.83;;;;;;;;;;5096375;28;20028;-71
2023/02/13 15:00:29;;;;;;;37.00;23.05;;;;;;;;;;5095340;28;20043;-71
2023/02/13 15:02:58;;;;;;;42.42;24.77;;;;;;;;;;5093230;28;20395;-71
2023/02/13 15:05:29;;;;;;;36.63;23.38;;;;;;;;;;5097636;28;20424;-70
2023/02/13 15:08:06;;;;;;;39.15;24.35;;;;;;;;;;5093635;28;20641;-71
2023/02/13 15:10:32;;;;;;;39.75;23.13;;;;;;;;;;5092259;28;20079;-71
2023/02/13 15:12:59;;;;;;;38.35;24.17;;;;;;;;;;5076690;28;20799;-71
2023/02/13 15:15:27;;;;;;;37.05;24.15;;;;;;;;;;5073849;28;20047;-71